createdAt,value
2019-02-15T00:00:14.327Z,18.67
2019-02-15T00:02:43.211Z,19.93
2019-02-15T00:05:11.785Z,18.37
2019-02-15T00:07:40.229Z,18.87
2019-02-15T00:10:08.768Z,18.20
2019-02-15T00:12:37.449Z,18.90
2019-02-15T00:15:06.836Z,19.00
2019-02-15T00:17:43.115Z,17.80
2019-02-15T00:20:16.469Z,18.13
2019-02-15T00:22:45.402Z,17.80
2019-02-15T00:25:14.088Z,18.07
2019-02-15T00:27:42.776Z,18.93
2019-02-15T00:30:12.470Z,18.37
2019-02-15T00:32:40.971Z,17.13
2019-02-15T00:35:09.761Z,18.50
2019-02-15T00:37:38.439Z,15.90
2019-02-15T00:40:06.934Z,16.07
2019-02-15T00:42:35.688Z,16.93
2019-02-15T00:45:06.032Z,16.77
2019-02-15T00:47:38.791Z,15.17
2019-02-15T00:50:09.746Z,19.63
2019-02-15T00:52:42.927Z,16.47
2019-02-15T00:55:15.807Z,15.37
2019-02-15T00:57:49.405Z,15.00
2019-02-15T01:00:32.476Z,14.93
2019-02-15T01:03:17.496Z,14.83
2019-02-15T01:05:54.501Z,14.87
2019-02-15T01:08:27.363Z,14.07
2019-02-15T01:11:13.199Z,16.20
2019-02-15T01:13:41.936Z,14.63
2019-02-15T01:16:10.411Z,13.87
2019-02-15T01:18:39.128Z,16.00
2019-02-15T01:21:07.815Z,14.53
2019-02-15T01:23:36.565Z,15.23
2019-02-15T01:26:06.739Z,15.10
2019-02-15T01:28:37.023Z,14.87
2019-02-15T01:31:22.199Z,14.47
2019-02-15T01:33:52.418Z,14.53
2019-02-15T01:36:25.733Z,14.57
2019-02-15T01:38:55.932Z,13.47
2019-02-15T01:41:33.027Z,14.13
2019-02-15T01:44:03.231Z,14.07
2019-02-15T01:46:33.686Z,13.23
2019-02-15T01:49:02.244Z,13.23
2019-02-15T01:51:31.246Z,13.40
2019-02-15T01:54:01.511Z,13.10
2019-02-15T01:56:30.054Z,12.83
2019-02-15T01:58:58.528Z,15.53
2019-02-15T02:01:27.960Z,13.13
2019-02-15T02:03:56.638Z,12.67
2019-02-15T02:06:25.197Z,14.07
2019-02-15T02:08:53.735Z,13.10
2019-02-15T02:11:23.899Z,13.47
2019-02-15T02:13:52.611Z,13.20
2019-02-15T02:16:21.052Z,13.13
2019-02-15T02:18:49.984Z,13.60
2019-02-15T02:21:18.911Z,12.97
2019-02-15T02:23:47.438Z,13.17
2019-02-15T02:26:16.244Z,12.97
2019-02-15T02:28:45.034Z,12.40
2019-02-15T02:31:13.463Z,12.40
2019-02-15T02:33:42.657Z,12.80
2019-02-15T02:36:11.409Z,13.27
2019-02-15T02:38:39.846Z,12.00
2019-02-15T02:41:08.439Z,13.17
2019-02-15T02:43:37.032Z,12.37
2019-02-15T02:46:05.505Z,12.83
2019-02-15T02:48:35.403Z,13.23
2019-02-15T02:51:04.002Z,13.60
2019-02-15T02:53:34.550Z,12.17
2019-02-15T02:56:02.834Z,12.33
2019-02-15T02:58:34.792Z,13.67
2019-02-15T03:01:03.786Z,12.00
2019-02-15T03:03:32.347Z,12.40
2019-02-15T03:06:00.928Z,12.30
2019-02-15T03:08:29.537Z,12.13
2019-02-15T03:10:57.990Z,12.43
2019-02-15T03:13:29.957Z,11.27
2019-02-15T03:15:58.542Z,12.03
2019-02-15T03:18:27.359Z,12.00
2019-02-15T03:20:55.913Z,11.83
2019-02-15T03:23:24.500Z,11.67
2019-02-15T03:25:53.410Z,11.97
2019-02-15T03:28:22.168Z,11.23
2019-02-15T03:30:50.783Z,11.93
2019-02-15T03:33:19.213Z,11.77
2019-02-15T03:35:55.540Z,10.70
2019-02-15T03:38:31.766Z,11.73
2019-02-15T03:41:02.929Z,11.03
2019-02-15T03:43:31.729Z,11.50
2019-02-15T03:46:00.973Z,10.97
2019-02-15T03:48:29.452Z,10.67
2019-02-15T03:51:01.137Z,11.03
2019-02-15T03:53:29.606Z,10.47
2019-02-15T03:55:58.223Z,10.80
2019-02-15T03:58:27.103Z,10.40
2019-02-15T04:00:55.681Z,10.93
2019-02-15T04:03:26.086Z,10.40
2019-02-15T04:05:54.589Z,10.67
2019-02-15T04:08:23.198Z,10.43
2019-02-15T04:10:53.609Z,9.93
2019-02-15T04:13:22.020Z,10.50
2019-02-15T04:15:50.563Z,10.17
2019-02-15T04:18:19.130Z,10.73
2019-02-15T04:20:47.847Z,10.30
2019-02-15T04:23:16.538Z,10.40
2019-02-15T04:25:45.245Z,10.53
2019-02-15T04:28:14.628Z,9.57
2019-02-15T04:30:43.179Z,9.23
2019-02-15T04:33:11.686Z,10.27
2019-02-15T04:35:40.882Z,9.77
2019-02-15T04:38:09.336Z,10.07
2019-02-15T04:40:37.819Z,9.63
2019-02-15T04:43:06.567Z,9.57
2019-02-15T04:45:35.319Z,9.70
2019-02-15T04:48:04.006Z,9.33
2019-02-15T04:50:32.877Z,9.07
2019-02-15T04:53:03.040Z,9.17
2019-02-15T04:55:31.573Z,9.13
2019-02-15T04:58:00.256Z,9.17
2019-02-15T05:00:28.945Z,9.67
2019-02-15T05:02:57.424Z,9.10
2019-02-15T05:05:26.038Z,9.60
2019-02-15T05:07:54.695Z,9.40
2019-02-15T05:10:23.410Z,9.17
2019-02-15T05:12:51.895Z,9.17
2019-02-15T05:15:20.436Z,8.23
2019-02-15T05:17:49.031Z,9.20
2019-02-15T05:20:17.536Z,9.20
2019-02-15T05:22:46.109Z,9.33
2019-02-15T05:25:14.565Z,8.93
2019-02-15T05:27:43.172Z,8.93
2019-02-15T05:30:13.516Z,9.43
2019-02-15T05:32:42.278Z,8.73
2019-02-15T05:35:11.192Z,8.63
2019-02-15T05:37:40.183Z,8.60
2019-02-15T05:40:08.881Z,8.67
2019-02-15T05:42:37.554Z,8.97
2019-02-15T05:45:08.186Z,7.90
2019-02-15T05:47:36.635Z,9.27
2019-02-15T05:50:06.209Z,8.90
2019-02-15T05:52:34.734Z,8.30
2019-02-15T05:55:03.733Z,8.57
2019-02-15T05:57:32.435Z,7.93
2019-02-15T06:00:00.987Z,8.80
2019-02-15T06:02:29.504Z,8.67
2019-02-15T06:04:58.195Z,8.53
2019-02-15T06:07:27.156Z,7.83
2019-02-15T06:09:55.869Z,8.37
2019-02-15T06:12:24.425Z,8.20
2019-02-15T06:14:52.918Z,7.97
2019-02-15T06:17:21.589Z,8.50
2019-02-15T06:19:50.611Z,8.07
2019-02-15T06:22:19.058Z,8.30
2019-02-15T06:24:47.652Z,7.53
2019-02-15T06:27:16.359Z,8.20
2019-02-15T06:29:45.019Z,8.23
2019-02-15T06:32:14.314Z,8.30
2019-02-15T06:34:43.027Z,7.60
2019-02-15T06:37:14.859Z,8.03
2019-02-15T06:39:43.485Z,7.50
2019-02-15T06:42:12.032Z,7.30
2019-02-15T06:44:40.845Z,7.73
2019-02-15T06:47:09.624Z,7.87
2019-02-15T06:49:38.289Z,7.87
2019-02-15T06:52:06.908Z,7.43
2019-02-15T06:54:35.356Z,7.67
2019-02-15T06:57:03.942Z,7.97
2019-02-15T06:59:50.543Z,6.93
2019-02-15T07:02:23.548Z,6.90
2019-02-15T07:04:59.698Z,7.67
2019-02-15T07:07:28.817Z,7.43
2019-02-15T07:09:57.543Z,7.70
2019-02-15T07:12:27.987Z,7.23
2019-02-15T07:14:56.717Z,6.93
2019-02-15T07:17:25.148Z,7.70
2019-02-15T07:19:55.359Z,7.20
2019-02-15T07:22:24.003Z,7.10
2019-02-15T07:24:52.557Z,6.83
2019-02-15T07:27:21.357Z,7.90
2019-02-15T07:29:49.935Z,7.20
2019-02-15T07:32:18.749Z,7.30
2019-02-15T07:34:47.610Z,7.03
2019-02-15T07:37:16.423Z,7.10
2019-02-15T07:39:45.585Z,6.73
2019-02-15T07:42:14.280Z,7.20
2019-02-15T07:44:42.730Z,6.57
2019-02-15T07:47:13.083Z,6.13
2019-02-15T07:49:41.527Z,6.53
2019-02-15T07:52:10.161Z,6.73
2019-02-15T07:54:40.434Z,6.70
2019-02-15T07:57:08.955Z,6.00
2019-02-15T07:59:37.542Z,6.53
2019-02-15T08:02:06.273Z,6.53
2019-02-15T08:04:35.039Z,7.10
2019-02-15T08:07:03.725Z,6.83
2019-02-15T08:09:32.417Z,6.57
2019-02-15T08:12:00.971Z,6.33
2019-02-15T08:14:29.558Z,6.50
2019-02-15T08:16:58.168Z,6.57
2019-02-15T08:19:26.662Z,6.33
2019-02-15T08:21:55.199Z,6.17
2019-02-15T08:24:24.796Z,6.30
2019-02-15T08:26:53.519Z,6.17
2019-02-15T08:29:22.181Z,6.10
2019-02-15T08:31:50.759Z,6.40
2019-02-15T08:34:19.578Z,5.73
2019-02-15T08:36:48.137Z,5.63
2019-02-15T08:39:16.721Z,5.73
2019-02-15T08:42:00.669Z,5.70
2019-02-15T08:44:15.418Z,5.67
2019-02-15T08:46:44.234Z,5.57
2019-02-15T08:49:12.904Z,5.67
2019-02-15T08:51:41.482Z,5.53
2019-02-15T08:54:09.961Z,5.70
2019-02-15T08:56:40.654Z,5.70
2019-02-15T08:59:08.972Z,5.10
2019-02-15T09:01:37.886Z,5.13
2019-02-15T09:04:06.318Z,5.97
2019-02-15T09:06:36.667Z,5.77
2019-02-15T09:09:06.077Z,5.47
2019-02-15T09:11:36.197Z,5.27
2019-02-15T09:14:07.847Z,5.50
2019-02-15T09:16:36.431Z,5.60
2019-02-15T09:19:06.135Z,5.13
2019-02-15T09:21:36.081Z,5.60
2019-02-15T09:24:04.663Z,5.33
2019-02-15T09:26:33.430Z,4.93
2019-02-15T09:29:06.841Z,5.73
2019-02-15T09:31:35.395Z,5.00
2019-02-15T09:34:04.008Z,5.17
2019-02-15T09:36:32.452Z,5.37
2019-02-15T09:39:01.048Z,5.27
2019-02-15T09:41:29.764Z,5.43
2019-02-15T09:43:58.320Z,5.30
2019-02-15T09:46:27.162Z,4.73
2019-02-15T09:48:55.639Z,5.30
2019-02-15T09:51:25.858Z,5.50
2019-02-15T09:53:54.726Z,5.00
2019-02-15T09:56:24.194Z,5.10
2019-02-15T09:58:52.693Z,4.97
2019-02-15T10:01:21.399Z,5.00
2019-02-15T10:03:49.837Z,4.70
2019-02-15T10:06:18.360Z,4.90
2019-02-15T10:08:46.924Z,4.90
2019-02-15T10:11:15.466Z,5.00
2019-02-15T10:13:43.973Z,4.73
2019-02-15T10:16:12.593Z,4.90
2019-02-15T10:18:41.147Z,4.67
2019-02-15T10:21:09.968Z,4.57
2019-02-15T10:23:38.967Z,4.37
2019-02-15T10:26:07.518Z,5.17
2019-02-15T10:28:36.101Z,4.97
2019-02-15T10:31:04.707Z,4.67
2019-02-15T10:33:33.394Z,4.70
2019-02-15T10:36:01.895Z,4.50
2019-02-15T10:38:30.545Z,4.70
2019-02-15T10:40:59.101Z,4.47
2019-02-15T10:43:27.604Z,4.63
2019-02-15T10:45:56.113Z,4.10
2019-02-15T10:48:26.338Z,4.80
2019-02-15T10:50:54.886Z,4.40
2019-02-15T10:53:23.475Z,4.10
2019-02-15T10:55:53.776Z,4.00
2019-02-15T10:58:22.402Z,4.10
2019-02-15T11:00:50.863Z,4.20
2019-02-15T11:03:19.447Z,3.80
2019-02-15T11:05:48.188Z,4.20
2019-02-15T11:08:18.779Z,4.03
2019-02-15T11:10:47.368Z,4.10
2019-02-15T11:13:16.055Z,4.10
2019-02-15T11:15:44.537Z,3.80
2019-02-15T11:18:13.203Z,4.40
2019-02-15T11:20:43.908Z,3.97
2019-02-15T11:23:12.337Z,4.20
2019-02-15T11:25:40.999Z,3.93
2019-02-15T11:28:09.584Z,3.90
2019-02-15T11:30:38.697Z,4.37
2019-02-15T11:33:07.156Z,4.17
2019-02-15T11:35:36.072Z,4.57
2019-02-15T11:38:04.760Z,4.00
2019-02-15T11:40:33.441Z,4.20
2019-02-15T11:43:01.999Z,3.93
2019-02-15T11:45:30.552Z,4.03
2019-02-15T11:47:59.194Z,4.00
2019-02-15T11:50:29.727Z,4.33
2019-02-15T11:52:59.921Z,4.10
2019-02-15T11:55:28.418Z,4.07
2019-02-15T11:57:57.010Z,3.80
2019-02-15T12:00:29.670Z,3.63
2019-02-15T12:02:58.246Z,3.97
2019-02-15T12:05:29.833Z,3.60
2019-02-15T12:08:00.126Z,4.23
2019-02-15T12:10:28.735Z,3.53
2019-02-15T12:12:57.188Z,3.67
2019-02-15T12:15:25.797Z,3.90
2019-02-15T12:17:54.486Z,3.40
2019-02-15T12:20:23.170Z,3.30
2019-02-15T12:22:53.010Z,3.80
2019-02-15T12:25:21.770Z,3.73
2019-02-15T12:27:50.271Z,3.57
2019-02-15T12:30:18.863Z,3.90
2019-02-15T12:32:47.577Z,3.73
2019-02-15T12:35:16.551Z,3.37
2019-02-15T12:37:45.209Z,3.77
2019-02-15T12:40:13.758Z,3.77
2019-02-15T12:43:15.223Z,4.20
2019-02-15T12:45:37.661Z,3.73
2019-02-15T12:48:06.511Z,3.87
2019-02-15T12:50:35.356Z,3.80
2019-02-15T12:53:04.041Z,3.40
2019-02-15T12:55:32.566Z,3.87
2019-02-15T12:58:01.187Z,3.80
2019-02-15T13:00:29.826Z,4.03
2019-02-15T13:02:58.347Z,3.80
2019-02-15T13:05:27.162Z,3.60
2019-02-15T13:07:57.322Z,4.33
2019-02-15T13:10:27.480Z,3.40
2019-02-15T13:12:56.298Z,3.80
2019-02-15T13:15:25.122Z,3.63
2019-02-15T13:17:53.969Z,3.83
2019-02-15T13:20:22.937Z,3.93
2019-02-15T13:22:51.649Z,3.70
2019-02-15T13:25:20.204Z,3.47
2019-02-15T13:27:49.022Z,4.10
2019-02-15T13:30:18.015Z,4.03
2019-02-15T13:32:47.067Z,3.80
2019-02-15T13:35:24.036Z,3.77
2019-02-15T13:37:52.208Z,3.77
2019-02-15T13:40:24.101Z,3.70
2019-02-15T13:42:52.686Z,3.73
2019-02-15T13:45:21.806Z,3.83
2019-02-15T13:47:50.360Z,3.80
2019-02-15T13:50:19.265Z,3.90
2019-02-15T13:52:48.085Z,3.70
2019-02-15T13:55:16.630Z,3.37
2019-02-15T13:57:45.130Z,3.70
2019-02-15T14:00:17.503Z,4.10
2019-02-15T14:02:46.292Z,4.00
2019-02-15T14:05:15.288Z,6.50
2019-02-15T14:07:44.739Z,3.67
2019-02-15T14:10:15.427Z,4.00
2019-02-15T14:12:44.115Z,6.63
2019-02-15T14:15:12.667Z,8.13
2019-02-15T14:17:45.533Z,7.73
2019-02-15T14:20:13.652Z,7.40
2019-02-15T14:22:42.123Z,9.23
2019-02-15T14:25:12.287Z,6.83
2019-02-15T14:27:41.315Z,7.97
2019-02-15T14:30:14.433Z,9.47
2019-02-15T14:32:43.087Z,7.43
2019-02-15T14:35:16.286Z,8.57
2019-02-15T14:37:45.397Z,7.60
2019-02-15T14:40:14.603Z,8.50
2019-02-15T14:42:43.179Z,7.23
2019-02-15T14:45:15.208Z,7.00
2019-02-15T14:47:43.710Z,7.10
2019-02-15T14:50:12.502Z,6.60
2019-02-15T14:52:40.973Z,7.97
2019-02-15T14:55:10.797Z,7.50
2019-02-15T14:57:39.395Z,7.53
2019-02-15T15:00:12.857Z,6.10
2019-02-15T15:02:41.683Z,6.70
2019-02-15T15:05:14.275Z,6.40
2019-02-15T15:07:42.818Z,6.50
2019-02-15T15:10:14.573Z,6.00
2019-02-15T15:12:43.263Z,6.20
2019-02-15T15:15:13.415Z,6.60
2019-02-15T15:17:41.963Z,6.07
2019-02-15T15:20:12.595Z,6.30
2019-02-15T15:22:41.280Z,6.53
2019-02-15T15:25:12.025Z,6.77
2019-02-15T15:27:40.831Z,5.87
2019-02-15T15:30:11.846Z,6.27
2019-02-15T15:32:41.788Z,6.07
2019-02-15T15:35:11.713Z,6.13
2019-02-15T15:37:40.488Z,5.70
2019-02-15T15:40:14.402Z,7.23
2019-02-15T15:42:43.698Z,5.93
2019-02-15T15:45:12.997Z,5.97
2019-02-15T15:47:41.998Z,7.93
2019-02-15T15:50:14.367Z,5.80
2019-02-15T15:52:43.050Z,5.93
2019-02-15T15:55:13.271Z,8.60
2019-02-15T15:57:41.946Z,6.97
2019-02-15T16:00:13.747Z,6.43
2019-02-15T16:02:42.717Z,6.17
2019-02-15T16:05:11.518Z,7.40
2019-02-15T16:07:40.179Z,8.67
2019-02-15T16:10:11.297Z,8.43
2019-02-15T16:12:41.841Z,9.20
2019-02-15T16:15:14.597Z,7.70
2019-02-15T16:17:43.296Z,8.90
2019-02-15T16:20:12.945Z,9.70
2019-02-15T16:22:41.493Z,7.13
2019-02-15T16:25:10.858Z,7.87
2019-02-15T16:27:43.394Z,9.70
2019-02-15T16:30:14.320Z,8.93
2019-02-15T16:32:42.993Z,7.53
2019-02-15T16:35:11.913Z,8.30
2019-02-15T16:37:40.668Z,7.20
2019-02-15T16:40:19.569Z,8.80
2019-02-15T16:42:48.248Z,7.07
2019-02-15T16:45:17.406Z,7.80
2019-02-15T16:47:45.974Z,6.10
2019-02-15T16:50:14.773Z,7.07
2019-02-15T16:52:43.497Z,8.80
2019-02-15T16:55:13.281Z,7.47
2019-02-15T16:57:42.132Z,7.17
2019-02-15T17:00:12.979Z,7.33
2019-02-15T17:02:43.178Z,7.40
2019-02-15T17:05:11.810Z,7.03
2019-02-15T17:07:40.362Z,5.50
2019-02-15T17:10:10.714Z,6.73
2019-02-15T17:12:39.389Z,6.60
2019-02-15T17:15:13.925Z,5.83
2019-02-15T17:17:44.347Z,6.37
2019-02-15T17:20:13.135Z,5.93
2019-02-15T17:22:44.984Z,6.13
2019-02-15T17:25:15.375Z,5.53
2019-02-15T17:27:43.885Z,7.43
2019-02-15T17:30:12.780Z,5.60
2019-02-15T17:32:44.558Z,5.77
2019-02-15T17:35:13.014Z,9.27
2019-02-15T17:37:41.592Z,491.43
2019-02-15T17:40:12.454Z,268.73
2019-02-15T17:42:41.116Z,144.00
2019-02-15T17:45:11.443Z,177.27
2019-02-15T17:47:43.303Z,146.70
2019-02-15T17:50:14.378Z,126.20
2019-02-15T17:52:43.033Z,126.67
2019-02-15T17:55:11.638Z,127.37
2019-02-15T17:57:40.196Z,110.43
2019-02-15T18:00:16.638Z,101.30
2019-02-15T18:02:45.370Z,99.47
2019-02-15T18:05:17.124Z,96.23
2019-02-15T18:07:48.074Z,86.70
2019-02-15T18:10:16.962Z,85.87
2019-02-15T18:12:48.662Z,88.47
2019-02-15T18:15:17.402Z,83.77
2019-02-15T18:17:46.134Z,72.20
2019-02-15T18:20:15.079Z,76.17
2019-02-15T18:22:43.637Z,76.80
2019-02-15T18:25:12.336Z,73.90
2019-02-15T18:27:41.140Z,68.43
2019-02-15T18:30:16.891Z,69.80
2019-02-15T18:32:45.576Z,67.07
2019-02-15T18:35:14.243Z,67.30
2019-02-15T18:37:42.990Z,54.60
2019-02-15T18:40:11.636Z,54.37
2019-02-15T18:42:40.362Z,55.53
2019-02-15T18:45:14.233Z,54.37
2019-02-15T18:47:42.892Z,49.83
2019-02-15T18:50:11.598Z,51.27
2019-02-15T18:52:40.286Z,50.83
2019-02-15T18:55:10.510Z,48.23
2019-02-15T18:57:39.193Z,45.17
2019-02-15T19:00:15.623Z,45.33
2019-02-15T19:02:46.540Z,46.23
2019-02-15T19:05:15.398Z,46.43
2019-02-15T19:07:44.468Z,42.37
2019-02-15T19:10:15.956Z,40.70
2019-02-15T19:12:46.585Z,39.07
2019-02-15T19:15:16.396Z,32.77
2019-02-15T19:17:46.039Z,35.30
2019-02-15T19:20:16.447Z,32.40
2019-02-15T19:22:44.923Z,31.73
2019-02-15T19:25:18.774Z,28.10
2019-02-15T19:27:47.384Z,32.17
2019-02-15T19:30:19.449Z,27.87
2019-02-15T19:32:49.055Z,26.07
2019-02-15T19:35:18.006Z,27.83
2019-02-15T19:37:46.736Z,27.57
2019-02-15T19:40:18.063Z,27.43
2019-02-15T19:42:48.166Z,27.87
2019-02-15T19:45:16.786Z,23.73
2019-02-15T19:47:48.222Z,21.60
2019-02-15T19:50:21.235Z,22.47
2019-02-15T19:52:49.712Z,24.93
2019-02-15T19:55:21.585Z,23.57
2019-02-15T19:57:50.356Z,23.30
2019-02-15T20:00:21.687Z,23.80
2019-02-15T20:02:50.803Z,19.60
2019-02-15T20:05:22.867Z,20.47
2019-02-15T20:07:51.424Z,18.13
2019-02-15T20:10:22.694Z,18.53
2019-02-15T20:12:51.251Z,19.60
2019-02-15T20:15:19.840Z,18.07
2019-02-15T20:17:48.446Z,18.90
2019-02-15T20:20:17.745Z,18.23
2019-02-15T20:22:46.307Z,15.10
2019-02-15T20:25:15.304Z,18.07
2019-02-15T20:27:48.452Z,16.13
2019-02-15T20:30:24.165Z,16.50
2019-02-15T20:32:52.849Z,17.30
2019-02-15T20:35:21.853Z,16.27
2019-02-15T20:37:50.609Z,15.67
2019-02-15T20:40:20.791Z,14.13
2019-02-15T20:42:49.435Z,11.77
2019-02-15T20:45:24.267Z,12.10
2019-02-15T20:47:56.015Z,12.30
2019-02-15T20:50:24.708Z,13.80
2019-02-15T20:52:53.477Z,11.10
2019-02-15T20:55:22.389Z,11.10
2019-02-15T20:57:50.949Z,12.20
2019-02-15T21:00:27.750Z,11.30
2019-02-15T21:02:56.737Z,12.03
2019-02-15T21:05:25.425Z,10.83
2019-02-15T21:07:54.480Z,10.87
2019-02-15T21:10:23.408Z,12.27
2019-02-15T21:12:53.473Z,9.43
2019-02-15T21:15:24.102Z,9.63
2019-02-15T21:17:53.379Z,9.93
2019-02-15T21:20:22.147Z,11.13
2019-02-15T21:22:50.876Z,9.70
2019-02-15T21:25:19.494Z,9.90
2019-02-15T21:27:49.742Z,9.70
2019-02-15T21:30:23.036Z,8.57
2019-02-15T21:32:51.909Z,9.27
2019-02-15T21:35:20.491Z,8.57
2019-02-15T21:37:49.092Z,8.53
2019-02-15T21:40:19.010Z,9.60
2019-02-15T21:42:47.982Z,8.73
2019-02-15T21:45:16.559Z,8.27
2019-02-15T21:47:45.986Z,8.53
2019-02-15T21:50:17.530Z,7.67
2019-02-15T21:52:45.206Z,8.30
2019-02-15T21:55:15.732Z,7.83
2019-02-15T21:57:44.417Z,8.00
2019-02-15T22:00:15.747Z,7.43
2019-02-15T22:02:44.543Z,7.60
2019-02-15T22:05:13.240Z,7.13
2019-02-15T22:07:42.230Z,7.97
2019-02-15T22:10:10.835Z,7.43
2019-02-15T22:12:39.372Z,6.90
2019-02-15T22:15:15.841Z,6.77
2019-02-15T22:17:44.307Z,7.43
2019-02-15T22:20:25.912Z,7.97
2019-02-15T22:22:47.562Z,6.77
2019-02-15T22:25:16.116Z,6.57
2019-02-15T22:27:44.597Z,7.93
2019-02-15T22:30:18.530Z,7.60
2019-02-15T22:32:47.103Z,6.93
2019-02-15T22:35:15.555Z,6.77
2019-02-15T22:37:44.281Z,6.73
2019-02-15T22:40:24.206Z,6.53
2019-02-15T22:42:53.021Z,6.87
2019-02-15T22:45:23.389Z,6.47
2019-02-15T22:47:51.838Z,6.27
2019-02-15T22:50:20.379Z,6.23
2019-02-15T22:52:49.301Z,6.10
2019-02-15T22:55:18.295Z,5.90
2019-02-15T22:57:46.980Z,6.03
2019-02-15T23:00:22.092Z,6.03
2019-02-15T23:02:51.414Z,6.10
2019-02-15T23:05:20.104Z,5.90
2019-02-15T23:07:48.775Z,6.07
2019-02-15T23:10:17.303Z,6.10
2019-02-15T23:12:49.000Z,6.03
2019-02-15T23:15:17.612Z,6.17
2019-02-15T23:17:46.605Z,5.87
2019-02-15T23:20:15.268Z,6.17
2019-02-15T23:22:43.977Z,5.60
2019-02-15T23:25:12.844Z,5.60
2019-02-15T23:27:41.558Z,5.73
2019-02-15T23:30:11.756Z,6.37
2019-02-15T23:32:40.240Z,5.73
2019-02-15T23:35:08.940Z,5.33
2019-02-15T23:37:37.626Z,6.07
2019-02-15T23:40:06.898Z,5.80
2019-02-15T23:42:35.437Z,5.70
2019-02-15T23:45:06.015Z,5.20
2019-02-15T23:47:34.701Z,5.47
2019-02-15T23:50:03.283Z,5.60
2019-02-15T23:52:31.895Z,5.33
2019-02-15T23:55:00.774Z,5.23
2019-02-15T23:57:29.616Z,5.07
2019-02-15T23:59:58.128Z,5.20
